Time;durP1;ratioP1;P1;durP2;ratioP2;P2;SDS_P1;SDS_P2;PMS_P1;PMS_P2;Temp;Humidity;BMP_temperature;BMP_pressure;BME280_temperature;BME280_humidity;BME280_pressure;Samples;Min_cycle;Max_cycle;Signal;HPM_P1;HPM_P2
2024/01/05 00:01:53;;;;;;;17.10;9.43;;;3.80;99.90;;;;;;5011707;28;20042;-80
2024/01/05 00:04:18;;;;;;;15.68;9.07;;;2.60;99.90;;;;;;5008188;28;20042;-82
2024/01/05 00:06:44;;;;;;;16.85;10.02;;;2.70;99.90;;;;;;4987846;28;20110;-82
2024/01/05 00:09:10;;;;;;;15.15;9.48;;;2.60;99.90;;;;;;4992565;28;20082;-80
2024/01/05 00:11:35;;;;;;;20.60;10.18;;;3.90;99.90;;;;;;4986419;28;20045;-81
2024/01/05 00:14:02;;;;;;;18.55;11.73;;;2.60;99.90;;;;;;5003945;28;20165;-81
2024/01/05 00:16:28;;;;;;;19.63;10.02;;;2.60;99.90;;;;;;5002018;28;20046;-80
2024/01/05 00:18:54;;;;;;;16.85;10.55;;;2.60;99.90;;;;;;4993134;28;20148;-80
2024/01/05 00:21:26;;;;;;;18.02;9.65;;;2.60;99.90;;;;;;5002702;28;20397;-81
2024/01/05 00:23:54;;;;;;;19.38;10.48;;;2.60;99.90;;;;;;4993011;28;20062;-81
2024/01/05 00:26:20;;;;;;;24.25;11.20;;;2.60;99.90;;;;;;5002598;28;20054;-81
2024/01/05 00:28:47;;;;;;;19.40;10.18;;;2.40;99.90;;;;;;4993196;28;20029;-84
2024/01/05 00:31:14;;;;;;;20.00;10.15;;;2.50;99.90;;;;;;4977022;28;20149;-81
2024/01/05 00:33:40;;;;;;;22.52;11.20;;;4.00;99.90;;;;;;4990848;28;20054;-81
2024/01/05 00:36:07;;;;;;;21.70;11.20;;;3.50;99.90;;;;;;4970565;28;20080;-80
2024/01/05 00:38:33;;;;;;;19.55;11.13;;;2.60;99.90;;;;;;5001724;28;20560;-81
2024/01/05 00:40:58;;;;;;;20.08;10.68;;;2.50;99.90;;;;;;5002458;28;20044;-81
2024/01/05 00:43:24;;;;;;;23.67;11.75;;;2.40;99.90;;;;;;4992810;28;20128;-83
2024/01/05 00:45:50;;;;;;;22.25;10.88;;;2.50;99.90;;;;;;4992723;28;20547;-81
2024/01/05 00:48:15;;;;;;;22.70;11.38;;;2.40;99.90;;;;;;4992710;28;20042;-80
2024/01/05 00:50:41;;;;;;;21.75;10.98;;;2.50;99.90;;;;;;4992747;28;20049;-82
2024/01/05 00:53:07;;;;;;;23.23;10.52;;;3.40;99.90;;;;;;4992536;28;20049;-80
2024/01/05 00:55:33;;;;;;;21.55;11.27;;;2.50;99.90;;;;;;5001503;28;20164;-81
2024/01/05 00:57:59;;;;;;;23.88;11.65;;;2.50;99.90;;;;;;5001067;28;20050;-80
2024/01/05 01:00:24;;;;;;;19.60;10.80;;;2.50;99.90;;;;;;4985757;28;20076;-81
2024/01/05 01:02:51;;;;;;;18.52;11.02;;;2.80;99.90;;;;;;4993456;28;20053;-81
2024/01/05 01:05:17;;;;;;;21.20;11.75;;;2.40;99.90;;;;;;4995122;28;20492;-82
2024/01/05 01:07:43;;;;;;;20.38;12.52;;;3.70;99.90;;;;;;4993328;28;20052;-81
2024/01/05 01:10:09;;;;;;;22.73;11.80;;;3.60;99.90;;;;;;4991836;28;20046;-81
2024/01/05 01:12:37;;;;;;;20.83;11.50;;;2.50;99.90;;;;;;4998843;28;20061;-81
2024/01/05 01:15:06;;;;;;;20.52;11.15;;;2.40;99.90;;;;;;5006352;28;20042;-82
2024/01/05 01:17:33;;;;;;;20.17;11.38;;;2.40;99.90;;;;;;5003068;28;20425;-83
2024/01/05 01:19:58;;;;;;;22.80;11.90;;;2.40;99.90;;;;;;5005854;28;20038;-84
2024/01/05 01:22:24;;;;;;;19.85;10.65;;;2.20;99.90;;;;;;5000638;28;20136;-81
2024/01/05 01:24:50;;;;;;;25.83;12.00;;;2.40;99.90;;;;;;5010947;28;20109;-81
2024/01/05 01:27:16;;;;;;;23.92;11.68;;;2.40;99.90;;;;;;5010347;28;20548;-81
2024/01/05 01:29:42;;;;;;;18.52;10.80;;;2.30;99.90;;;;;;4989939;28;20065;-82
2024/01/05 01:32:11;;;;;;;24.15;12.20;;;3.70;99.90;;;;;;4991095;28;20486;-81
2024/01/05 01:34:40;;;;;;;21.42;11.68;;;3.80;99.90;;;;;;4991459;28;20046;-83
2024/01/05 01:37:05;;;;;;;24.30;10.70;;;2.40;99.90;;;;;;4992757;28;20100;-80
2024/01/05 01:39:32;;;;;;;22.67;11.60;;;2.40;99.90;;;;;;5002097;28;20171;-83
2024/01/05 01:41:58;;;;;;;20.40;10.73;;;2.30;99.90;;;;;;4975986;28;20053;-82
2024/01/05 01:44:24;;;;;;;21.13;10.85;;;2.30;99.90;;;;;;4992829;28;20711;-81
2024/01/05 01:46:51;;;;;;;23.65;11.32;;;2.30;99.90;;;;;;4996414;28;20054;-80
2024/01/05 01:49:18;;;;;;;23.27;11.48;;;2.40;99.90;;;;;;4976641;28;20046;-81
2024/01/05 01:51:44;;;;;;;25.13;11.40;;;2.40;99.90;;;;;;4992439;28;20532;-82
2024/01/05 01:54:10;;;;;;;17.05;10.20;;;2.30;99.90;;;;;;4984382;28;20499;-81
2024/01/05 01:56:37;;;;;;;23.02;10.27;;;3.50;99.90;;;;;;5003699;28;20129;-82
2024/01/05 01:59:05;;;;;;;16.48;10.40;;;2.30;99.90;;;;;;4989004;28;20053;-81
2024/01/05 02:01:30;;;;;;;22.50;10.65;;;2.40;99.90;;;;;;4977338;28;20058;-81
2024/01/05 02:03:59;;;;;;;19.48;10.25;;;2.30;99.90;;;;;;4973310;28;20050;-83
2024/01/05 02:06:26;;;;;;;18.08;10.40;;;2.40;99.90;;;;;;4976150;28;20129;-80
2024/01/05 02:08:52;;;;;;;19.90;9.98;;;2.30;99.90;;;;;;5010015;28;20053;-84
2024/01/05 02:11:18;;;;;;;24.48;10.63;;;2.30;99.90;;;;;;4992475;28;20045;-81
2024/01/05 02:13:44;;;;;;;21.00;9.82;;;2.30;99.90;;;;;;4992116;28;20046;-81
2024/01/05 02:16:10;;;;;;;19.67;8.88;;;2.20;99.90;;;;;;5009908;28;20448;-80
2024/01/05 02:18:35;;;;;;;23.33;9.23;;;2.30;99.90;;;;;;5009851;28;20042;-81
2024/01/05 02:21:03;;;;;;;18.20;9.77;;;2.30;99.90;;;;;;5003292;28;20066;-81
2024/01/05 02:23:32;;;;;;;20.83;8.95;;;2.30;99.90;;;;;;5006282;28;20401;-81
2024/01/05 02:25:59;;;;;;;23.33;9.50;;;2.30;99.90;;;;;;4985785;28;20050;-82
2024/01/05 02:28:25;;;;;;;20.38;9.40;;;3.10;99.90;;;;;;4991615;28;20058;-80
2024/01/05 02:30:54;;;;;;;18.15;9.82;;;2.20;99.90;;;;;;4998407;28;20042;-81
2024/01/05 02:33:20;;;;;;;24.95;9.98;;;2.30;99.90;;;;;;4998844;28;20046;-81
2024/01/05 02:35:46;;;;;;;18.30;9.13;;;2.30;99.90;;;;;;4983842;28;20045;-81
2024/01/05 02:38:11;;;;;;;20.55;9.13;;;2.10;99.90;;;;;;4986033;28;20042;-83
2024/01/05 02:40:37;;;;;;;20.02;9.38;;;2.30;99.90;;;;;;5010101;28;20054;-82
2024/01/05 02:43:03;;;;;;;20.02;8.98;;;2.30;99.90;;;;;;4995377;28;20049;-83
2024/01/05 02:45:29;;;;;;;20.50;8.77;;;2.20;99.90;;;;;;5004097;28;20108;-82
2024/01/05 02:47:54;;;;;;;20.00;9.52;;;2.40;99.90;;;;;;5013193;28;20041;-80
2024/01/05 02:50:20;;;;;;;18.77;10.00;;;2.20;99.90;;;;;;4995590;28;20076;-81
2024/01/05 02:52:46;;;;;;;15.90;8.80;;;2.20;99.90;;;;;;4995582;28;20377;-81
2024/01/05 02:55:12;;;;;;;19.70;9.85;;;2.20;99.90;;;;;;5002034;28;20062;-81
2024/01/05 02:57:39;;;;;;;21.55;9.90;;;2.00;99.90;;;;;;4991035;28;20501;-82
2024/01/05 03:00:05;;;;;;;18.77;9.98;;;2.20;99.90;;;;;;5002200;28;20477;-81
2024/01/05 03:02:31;;;;;;;19.13;9.70;;;2.20;99.90;;;;;;5013036;28;20038;-82
2024/01/05 03:04:57;;;;;;;20.90;9.95;;;2.20;99.90;;;;;;5005312;28;20086;-81
2024/01/05 03:07:23;;;;;;;23.17;10.98;;;2.30;99.90;;;;;;4986928;28;20089;-81
2024/01/05 03:09:50;;;;;;;19.80;10.30;;;2.40;99.90;;;;;;5006267;28;20074;-82
2024/01/05 03:12:16;;;;;;;19.80;11.00;;;2.20;99.90;;;;;;4992273;28;20401;-80
2024/01/05 03:14:42;;;;;;;18.50;10.07;;;2.20;99.90;;;;;;5012410;28;20455;-81
2024/01/05 03:17:07;;;;;;;23.35;10.60;;;2.20;99.90;;;;;;4988213;28;20046;-82
2024/01/05 03:19:33;;;;;;;19.48;9.75;;;2.20;99.90;;;;;;4992111;28;20462;-81
2024/01/05 03:21:59;;;;;;;20.98;10.77;;;2.20;99.90;;;;;;4992185;28;20137;-80
2024/01/05 03:24:24;;;;;;;24.63;11.75;;;2.50;99.90;;;;;;5002291;28;20042;-82
2024/01/05 03:26:50;;;;;;;21.25;10.88;;;2.40;99.90;;;;;;4974709;28;20131;-81
2024/01/05 03:29:16;;;;;;;20.60;10.65;;;2.30;99.90;;;;;;4991161;28;20446;-84
2024/01/05 03:31:45;;;;;;;22.55;11.25;;;2.30;99.90;;;;;;5003491;28;20049;-81
2024/01/05 03:34:11;;;;;;;25.15;11.25;;;2.30;99.90;;;;;;4990722;28;20111;-82
2024/01/05 03:36:37;;;;;;;21.00;11.30;;;2.30;99.90;;;;;;4986152;28;20042;-82
2024/01/05 03:39:03;;;;;;;26.75;12.82;;;3.10;99.90;;;;;;4983017;28;20172;-81
2024/01/05 03:41:29;;;;;;;23.35;10.90;;;2.20;99.90;;;;;;4992828;28;20440;-81
2024/01/05 03:43:55;;;;;;;20.58;11.23;;;2.30;99.90;;;;;;4986382;28;20049;-81
2024/01/05 03:46:21;;;;;;;27.95;12.15;;;2.30;99.90;;;;;;4993845;28;20064;-82
2024/01/05 03:48:46;;;;;;;22.73;12.07;;;2.20;99.90;;;;;;5003095;28;20177;-80
2024/01/05 03:51:12;;;;;;;23.35;11.82;;;2.90;99.90;;;;;;5003110;28;20037;-80
2024/01/05 03:53:37;;;;;;;23.42;12.50;;;2.40;99.90;;;;;;5001641;28;20052;-80
2024/01/05 03:56:04;;;;;;;20.63;11.57;;;3.50;99.90;;;;;;4999967;28;20053;-81
2024/01/05 03:58:30;;;;;;;24.25;11.75;;;2.30;99.90;;;;;;4973882;28;20049;-81
2024/01/05 04:00:56;;;;;;;22.20;11.60;;;2.40;99.90;;;;;;4984637;28;20048;-80
2024/01/05 04:03:22;;;;;;;22.48;11.73;;;3.40;99.90;;;;;;4988173;28;20609;-81
2024/01/05 04:05:48;;;;;;;22.60;11.40;;;2.30;99.90;;;;;;4976004;28;20060;-80
2024/01/05 04:08:14;;;;;;;30.38;12.23;;;2.30;99.90;;;;;;5002930;28;20048;-80
2024/01/05 04:10:40;;;;;;;20.45;11.50;;;2.30;99.90;;;;;;4990354;28;20132;-80
2024/01/05 04:13:05;;;;;;;21.17;11.10;;;2.30;99.90;;;;;;5006030;28;20100;-80
2024/01/05 04:15:38;;;;;;;18.92;10.60;;;2.30;99.90;;;;;;4993500;28;20065;-79
2024/01/05 04:18:05;;;;;;;19.65;11.40;;;2.50;99.90;;;;;;5011276;28;20733;-81
2024/01/05 04:20:31;;;;;;;23.92;10.43;;;2.30;99.90;;;;;;5003086;28;20389;-80
2024/01/05 04:22:57;;;;;;;23.02;10.85;;;2.40;99.90;;;;;;5002394;28;20049;-80
2024/01/05 04:25:23;;;;;;;18.88;10.27;;;2.30;99.90;;;;;;4985589;28;20050;-81
2024/01/05 04:27:48;;;;;;;19.73;10.45;;;2.30;99.90;;;;;;4988289;28;20104;-81
2024/01/05 04:30:15;;;;;;;16.92;9.82;;;2.40;99.90;;;;;;4991735;28;20050;-80
2024/01/05 04:32:41;;;;;;;20.15;10.48;;;2.40;99.90;;;;;;4986525;28;20099;-80
2024/01/05 04:35:07;;;;;;;19.05;10.45;;;2.30;99.90;;;;;;5002303;28;20041;-80
2024/01/05 04:37:33;;;;;;;20.27;10.10;;;2.50;99.90;;;;;;4997316;28;20044;-80
2024/01/05 04:39:59;;;;;;;19.92;10.68;;;2.40;99.90;;;;;;4981647;28;20496;-81
2024/01/05 04:42:26;;;;;;;17.30;9.20;;;2.40;99.90;;;;;;4999813;28;20042;-80
2024/01/05 04:44:52;;;;;;;15.00;9.05;;;3.30;99.90;;;;;;5001981;28;20053;-80
2024/01/05 04:47:18;;;;;;;17.25;8.65;;;3.30;99.90;;;;;;4992398;28;20128;-80
2024/01/05 04:49:44;;;;;;;16.80;8.60;;;2.40;99.90;;;;;;4992537;28;20112;-80
2024/01/05 04:52:10;;;;;;;17.15;9.13;;;2.40;99.90;;;;;;4992573;28;20096;-80
2024/01/05 04:54:36;;;;;;;22.25;9.73;;;3.50;99.90;;;;;;4991708;28;20041;-81
2024/01/05 04:57:01;;;;;;;20.05;9.50;;;2.60;99.90;;;;;;5006093;28;20053;-81
2024/01/05 04:59:27;;;;;;;20.75;10.30;;;2.90;99.90;;;;;;4988732;28;20054;-81
2024/01/05 05:01:53;;;;;;;19.67;10.80;;;2.40;99.90;;;;;;4984190;28;20061;-80
2024/01/05 05:04:18;;;;;;;17.83;10.07;;;2.40;99.90;;;;;;4992792;28;20045;-81
2024/01/05 05:06:44;;;;;;;17.45;10.07;;;2.50;99.90;;;;;;4992939;28;20062;-82
2024/01/05 05:09:11;;;;;;;18.80;10.15;;;1.40;99.90;;;;;;4992229;28;20092;-79
2024/01/05 05:11:39;;;;;;;19.35;10.68;;;2.50;99.90;;;;;;5010559;28;20046;-81
2024/01/05 05:14:17;;;;;;;20.90;10.30;;;3.60;99.90;;;;;;5004372;28;20453;-80
2024/01/05 05:16:42;;;;;;;17.48;10.18;;;2.50;99.90;;;;;;5008907;28;20041;-82
2024/01/05 05:19:17;;;;;;;20.05;10.57;;;2.50;99.90;;;;;;4984641;28;20108;-86
2024/01/05 05:21:42;;;;;;;20.17;10.65;;;3.40;99.90;;;;;;5003073;28;20069;-83
2024/01/05 05:24:08;;;;;;;17.83;10.48;;;2.40;99.90;;;;;;4992899;28;20716;-82
2024/01/05 05:26:34;;;;;;;17.33;10.30;;;2.60;99.90;;;;;;4976080;28;20038;-82
2024/01/05 05:28:59;;;;;;;19.85;11.30;;;3.50;99.90;;;;;;4994505;28;20050;-81
2024/01/05 05:31:25;;;;;;;18.23;10.35;;;2.40;99.90;;;;;;4976379;28;20065;-81
2024/01/05 05:33:50;;;;;;;17.33;10.38;;;2.80;99.90;;;;;;4992761;28;20057;-81
2024/01/05 05:36:16;;;;;;;19.35;11.15;;;3.00;99.90;;;;;;4991746;28;20054;-80
2024/01/05 05:38:42;;;;;;;18.60;10.77;;;3.90;99.90;;;;;;5001438;28;20049;-81
2024/01/05 05:41:07;;;;;;;18.95;10.38;;;3.50;99.90;;;;;;4980627;28;20062;-81
2024/01/05 05:43:33;;;;;;;20.90;11.00;;;3.10;99.90;;;;;;5001043;28;20374;-83
2024/01/05 05:45:59;;;;;;;19.75;10.65;;;3.90;99.90;;;;;;4991956;28;20134;-83
2024/01/05 05:48:24;;;;;;;15.95;10.25;;;2.50;99.90;;;;;;5009868;28;20115;-81
2024/01/05 05:50:50;;;;;;;21.00;10.82;;;2.50;99.90;;;;;;5010560;28;20076;-81
2024/01/05 05:53:15;;;;;;;19.52;10.93;;;2.60;99.90;;;;;;5010194;28;20046;-82
2024/01/05 05:55:41;;;;;;;20.48;11.27;;;2.50;99.90;;;;;;4992022;28;20104;-84
2024/01/05 05:58:08;;;;;;;19.55;10.98;;;2.60;99.90;;;;;;4996788;28;20073;-81
2024/01/05 06:00:35;;;;;;;19.20;10.70;;;3.90;99.90;;;;;;4973036;28;20046;-83
2024/01/05 06:03:01;;;;;;;18.65;11.68;;;2.50;99.90;;;;;;4967635;28;20058;-81
2024/01/05 06:05:26;;;;;;;17.42;10.45;;;2.60;99.90;;;;;;5001830;28;20096;-81
2024/01/05 06:07:52;;;;;;;17.52;10.35;;;2.50;99.90;;;;;;4992107;28;20054;-80
2024/01/05 06:10:18;;;;;;;19.88;11.68;;;2.50;99.90;;;;;;4992575;28;20060;-82
2024/01/05 06:12:43;;;;;;;23.20;11.25;;;2.60;99.90;;;;;;5009535;28;20498;-82
2024/01/05 06:15:09;;;;;;;21.17;11.50;;;2.60;99.90;;;;;;4998942;28;20042;-82
2024/01/05 06:17:35;;;;;;;18.63;10.35;;;2.60;99.90;;;;;;5006878;28;20385;-80
2024/01/05 06:20:00;;;;;;;21.48;11.60;;;2.50;99.90;;;;;;5012784;28;20041;-81
2024/01/05 06:22:26;;;;;;;19.73;10.85;;;2.50;99.90;;;;;;4988665;28;20041;-81
2024/01/05 06:24:52;;;;;;;19.98;10.85;;;3.80;99.90;;;;;;5013442;28;20095;-81
2024/01/05 06:27:17;;;;;;;19.48;11.77;;;2.50;99.90;;;;;;5010911;28;20046;-81
2024/01/05 06:29:43;;;;;;;19.55;11.32;;;2.50;99.90;;;;;;4989306;28;20129;-83
2024/01/05 06:32:08;;;;;;;23.15;11.90;;;2.60;99.90;;;;;;4995358;28;20041;-81
2024/01/05 06:34:34;;;;;;;21.42;11.70;;;2.60;99.90;;;;;;5005500;28;20592;-82
2024/01/05 06:37:00;;;;;;;21.40;11.80;;;2.90;99.90;;;;;;4979358;28;20136;-81
2024/01/05 06:39:25;;;;;;;20.23;11.52;;;2.60;99.90;;;;;;4993589;28;20496;-81
2024/01/05 06:41:51;;;;;;;20.73;12.13;;;2.50;99.90;;;;;;4997256;28;20045;-82
2024/01/05 06:44:17;;;;;;;21.67;11.68;;;3.90;99.90;;;;;;5012274;28;20092;-82
2024/01/05 06:46:42;;;;;;;17.95;11.77;;;3.90;99.90;;;;;;5004806;28;20042;-81
2024/01/05 06:49:08;;;;;;;18.23;11.02;;;2.50;99.90;;;;;;4995812;28;20044;-81
2024/01/05 06:51:43;;;;;;;21.45;11.02;;;2.60;99.90;;;;;;4995454;28;20092;-82
2024/01/05 06:54:09;;;;;;;19.08;12.05;;;2.60;99.90;;;;;;5013160;28;20038;-81
2024/01/05 06:56:34;;;;;;;21.00;11.50;;;2.60;99.90;;;;;;4995859;28;20050;-80
2024/01/05 06:59:04;;;;;;;20.80;12.00;;;2.60;99.90;;;;;;5001840;28;20046;-81
2024/01/05 07:01:31;;;;;;;18.67;11.07;;;2.70;99.90;;;;;;4984080;28;20045;-82
2024/01/05 07:04:00;;;;;;;22.45;11.60;;;4.00;99.90;;;;;;4995133;28;20097;-81
2024/01/05 07:06:25;;;;;;;22.33;11.75;;;2.70;99.90;;;;;;4995640;28;20045;-81
2024/01/05 07:08:51;;;;;;;19.40;10.85;;;2.70;99.90;;;;;;5008819;28;20125;-81
2024/01/05 07:11:24;;;;;;;23.13;11.80;;;2.70;99.90;;;;;;4978183;28;20058;-82
2024/01/05 07:13:50;;;;;;;20.25;11.20;;;2.80;99.90;;;;;;5012154;28;20046;-81
2024/01/05 07:16:20;;;;;;;19.33;10.80;;;2.60;99.90;;;;;;5000932;28;20088;-81
2024/01/05 07:18:47;;;;;;;18.15;10.45;;;2.70;99.90;;;;;;4990730;28;20103;-81
2024/01/05 07:21:13;;;;;;;21.17;11.15;;;2.70;99.90;;;;;;5001746;28;20050;-81
2024/01/05 07:23:39;;;;;;;17.92;10.70;;;2.60;99.90;;;;;;4989210;28;20053;-81
2024/01/05 07:26:05;;;;;;;21.60;11.45;;;2.80;99.90;;;;;;5011125;28;20399;-80
2024/01/05 07:28:31;;;;;;;22.20;11.63;;;2.70;99.90;;;;;;4993622;28;20054;-83
2024/01/05 07:30:56;;;;;;;17.75;10.07;;;2.80;99.90;;;;;;4994279;28;20053;-81
2024/01/05 07:33:22;;;;;;;22.90;10.43;;;3.80;99.90;;;;;;5003048;28;20066;-80
2024/01/05 07:35:48;;;;;;;18.50;10.80;;;2.70;99.90;;;;;;4994168;28;20045;-83
2024/01/05 07:38:14;;;;;;;19.98;11.23;;;2.90;99.90;;;;;;5003479;28;20041;-80
2024/01/05 07:40:39;;;;;;;18.05;10.45;;;2.80;99.90;;;;;;5000247;28;20488;-81
2024/01/05 07:43:05;;;;;;;24.00;10.98;;;2.90;99.90;;;;;;4989408;28;20408;-81
2024/01/05 07:45:31;;;;;;;19.55;11.18;;;2.80;99.90;;;;;;5003103;28;20476;-81
2024/01/05 07:47:57;;;;;;;17.42;10.65;;;2.90;99.90;;;;;;5006573;28;20058;-81
2024/01/05 07:50:24;;;;;;;25.45;12.43;;;2.80;99.90;;;;;;5008843;28;20085;-82
2024/01/05 07:52:49;;;;;;;20.85;11.30;;;2.90;99.90;;;;;;4978020;28;20045;-80
2024/01/05 07:55:15;;;;;;;19.65;11.75;;;4.30;99.90;;;;;;5000609;28;20054;-80
2024/01/05 07:57:41;;;;;;;23.67;11.43;;;2.90;99.90;;;;;;5010118;28;20131;-80
2024/01/05 08:00:07;;;;;;;22.83;12.02;;;2.90;99.90;;;;;;4993164;28;20077;-82
2024/01/05 08:02:33;;;;;;;20.65;12.02;;;2.90;99.90;;;;;;4993505;28;20081;-83
2024/01/05 08:04:59;;;;;;;21.73;11.38;;;2.90;99.90;;;;;;4989711;28;20533;-83
2024/01/05 08:07:24;;;;;;;22.25;11.80;;;2.80;99.90;;;;;;4987944;28;20074;-81
2024/01/05 08:09:52;;;;;;;23.38;12.85;;;4.30;99.90;;;;;;5002063;28;20306;-81
2024/01/05 08:12:20;;;;;;;23.88;12.57;;;3.20;99.90;;;;;;4999825;28;20125;-81
2024/01/05 08:14:45;;;;;;;29.60;13.18;;;3.00;99.90;;;;;;4999983;28;20141;-80
2024/01/05 08:17:11;;;;;;;28.30;13.65;;;2.90;99.90;;;;;;5002817;28;20128;-80
2024/01/05 08:19:37;;;;;;;28.50;13.82;;;3.10;99.90;;;;;;4993180;28;20057;-81
2024/01/05 08:22:02;;;;;;;23.85;13.60;;;2.90;99.90;;;;;;4992850;28;20120;-81
2024/01/05 08:24:28;;;;;;;27.48;13.68;;;3.00;99.90;;;;;;4992822;28;20049;-81
2024/01/05 08:26:54;;;;;;;24.10;13.35;;;3.70;99.90;;;;;;4993100;28;20038;-81
2024/01/05 08:29:21;;;;;;;31.80;13.82;;;3.10;99.90;;;;;;4991078;28;20489;-81
2024/01/05 08:31:49;;;;;;;29.80;15.13;;;4.20;99.90;;;;;;4987157;28;20085;-82
2024/01/05 08:34:15;;;;;;;31.38;15.70;;;3.20;99.90;;;;;;4975076;28;20057;-81
2024/01/05 08:36:40;;;;;;;31.65;15.48;;;3.20;99.90;;;;;;4991756;28;20092;-81
2024/01/05 08:39:06;;;;;;;27.80;14.90;;;3.10;99.90;;;;;;4993242;28;20073;-81
2024/01/05 08:41:32;;;;;;;34.05;15.70;;;3.20;99.90;;;;;;5010300;28;20042;-82
2024/01/05 08:43:58;;;;;;;29.35;13.90;;;3.10;99.90;;;;;;5002359;28;20412;-82
2024/01/05 08:46:28;;;;;;;28.38;14.43;;;3.10;99.90;;;;;;5001544;28;20049;-81
2024/01/05 08:48:54;;;;;;;29.45;14.65;;;3.40;99.90;;;;;;4985839;28;20489;-81
2024/01/05 08:51:19;;;;;;;27.65;14.00;;;3.30;99.90;;;;;;5001955;28;20056;-80
2024/01/05 08:53:45;;;;;;;27.20;14.80;;;3.20;99.90;;;;;;4999020;28;20049;-79
2024/01/05 08:56:11;;;;;;;25.10;13.85;;;4.10;99.90;;;;;;5000377;28;20053;-80
2024/01/05 08:58:37;;;;;;;27.58;14.02;;;3.20;99.90;;;;;;4992442;28;20052;-80
2024/01/05 09:01:02;;;;;;;28.58;14.25;;;4.10;99.90;;;;;;5002493;28;20118;-81
2024/01/05 09:03:37;;;;;;;27.17;14.55;;;4.40;99.90;;;;;;4992974;28;20046;-81
2024/01/05 09:06:03;;;;;;;24.48;12.68;;;4.20;99.90;;;;;;5006209;28;20038;-81
2024/01/05 09:08:30;;;;;;;25.75;13.15;;;3.30;99.90;;;;;;5009971;28;20054;-84
2024/01/05 09:10:55;;;;;;;27.08;12.60;;;3.30;99.90;;;;;;5000737;28;20085;-81
2024/01/05 09:13:22;;;;;;;24.83;12.38;;;3.50;99.90;;;;;;4984418;28;20058;-81
2024/01/05 09:15:47;;;;;;;23.45;12.38;;;3.40;99.90;;;;;;4977452;28;20037;-80
2024/01/05 09:18:13;;;;;;;22.88;11.77;;;3.40;99.90;;;;;;5005930;28;20748;-79
2024/01/05 09:20:38;;;;;;;27.00;12.57;;;3.00;99.90;;;;;;5009786;28;20366;-78
2024/01/05 09:23:06;;;;;;;17.95;9.88;;;4.70;99.90;;;;;;5009592;28;20038;-79
2024/01/05 09:25:32;;;;;;;20.38;10.48;;;3.50;99.90;;;;;;4990111;28;20125;-78
2024/01/05 09:28:01;;;;;;;16.45;10.23;;;3.50;99.90;;;;;;5009971;28;20034;-78
2024/01/05 09:30:27;;;;;;;21.00;10.45;;;3.50;99.90;;;;;;4984266;28;20073;-79
2024/01/05 09:32:52;;;;;;;20.50;10.63;;;3.50;99.90;;;;;;4992256;28;20038;-78
2024/01/05 09:35:18;;;;;;;17.45;10.20;;;3.90;99.90;;;;;;4992451;28;20038;-80
2024/01/05 09:37:45;;;;;;;16.13;9.32;;;3.50;99.90;;;;;;5005884;28;20038;-79
2024/01/05 09:40:11;;;;;;;19.05;10.07;;;3.50;99.90;;;;;;4989029;28;20137;-79
2024/01/05 09:42:41;;;;;;;18.60;10.00;;;3.60;99.90;;;;;;5002213;28;20389;-79
2024/01/05 09:45:09;;;;;;;20.02;10.07;;;3.50;99.90;;;;;;5001924;28;20069;-78
2024/01/05 09:47:37;;;;;;;16.63;8.93;;;4.50;99.90;;;;;;5001213;28;20038;-81
2024/01/05 09:50:04;;;;;;;18.13;9.77;;;3.60;99.90;;;;;;4992744;28;20057;-80
2024/01/05 09:52:30;;;;;;;19.70;10.30;;;3.50;99.90;;;;;;4996128;28;20073;-80
2024/01/05 09:54:56;;;;;;;19.23;10.02;;;3.60;99.90;;;;;;4989224;28;20481;-80
2024/01/05 09:57:25;;;;;;;19.67;10.10;;;3.60;99.90;;;;;;5006946;28;20151;-80
2024/01/05 09:59:50;;;;;;;17.58;9.52;;;3.90;99.90;;;;;;4993562;28;20080;-80
2024/01/05 10:02:34;;;;;;;19.35;9.77;;;4.70;99.90;;;;;;5009983;28;20049;-80
2024/01/05 10:05:00;;;;;;;18.48;9.98;;;3.80;99.90;;;;;;5011904;28;20042;-81
2024/01/05 10:07:26;;;;;;;18.80;10.23;;;3.90;99.90;;;;;;4996141;28;20053;-82
2024/01/05 10:09:53;;;;;;;18.00;10.10;;;5.20;99.90;;;;;;4995903;28;20358;-82
2024/01/05 10:12:19;;;;;;;18.48;10.07;;;4.00;99.90;;;;;;5005117;28;20053;-82
2024/01/05 10:14:48;;;;;;;23.50;11.23;;;4.00;99.90;;;;;;4996224;28;20298;-82
2024/01/05 10:17:15;;;;;;;18.52;10.35;;;5.30;99.90;;;;;;4988240;28;20493;-84
2024/01/05 10:19:41;;;;;;;18.80;10.38;;;3.90;99.90;;;;;;4996404;28;20087;-82
2024/01/05 10:22:12;;;;;;;19.25;10.35;;;4.30;99.90;;;;;;4994331;28;20496;-82
2024/01/05 10:24:39;;;;;;;18.88;10.60;;;5.20;99.90;;;;;;5002173;28;20038;-82
2024/01/05 10:27:09;;;;;;;19.70;10.60;;;4.10;99.90;;;;;;5003057;28;20114;-82
2024/01/05 10:29:38;;;;;;;18.92;10.38;;;4.70;99.90;;;;;;4994983;28;20057;-82
2024/01/05 10:32:19;;;;;;;20.25;10.55;;;4.00;99.90;;;;;;5013177;28;20052;-82
2024/01/05 10:34:51;;;;;;;20.02;10.82;;;4.40;99.90;;;;;;4988965;28;20058;-82
2024/01/05 10:37:19;;;;;;;21.13;11.05;;;4.60;99.90;;;;;;4995101;28;20056;-82
2024/01/05 10:39:54;;;;;;;23.10;11.63;;;5.30;99.90;;;;;;4979479;28;20136;-81
2024/01/05 10:42:24;;;;;;;;;;;4.80;99.90;;;;;;4995294;28;20112;-85
2024/01/05 10:44:59;;;;;;;24.00;12.15;;;4.20;99.90;;;;;;4994513;28;20000;-81
2024/01/05 10:47:27;;;;;;;20.85;11.95;;;4.20;99.90;;;;;;5004266;28;20061;-82
2024/01/05 10:49:55;;;;;;;19.55;11.43;;;4.40;99.90;;;;;;5008701;28;20060;-83
2024/01/05 10:52:30;;;;;;;19.33;11.35;;;4.30;99.90;;;;;;5001717;28;20085;-82
2024/01/05 10:55:00;;;;;;;22.30;12.75;;;4.30;99.90;;;;;;4987923;28;20046;-82
2024/01/05 10:57:26;;;;;;;23.70;12.38;;;4.50;99.90;;;;;;5004536;28;20125;-82
2024/01/05 10:59:56;;;;;;;25.00;12.65;;;5.60;99.90;;;;;;5001382;28;20038;-82
2024/01/05 11:02:34;;;;;;;25.33;12.27;;;5.60;99.90;;;;;;4989150;28;20042;-82
2024/01/05 11:05:07;;;;;;;25.67;13.23;;;4.50;99.90;;;;;;5004577;28;20134;-82
2024/01/05 11:07:34;;;;;;;23.17;12.35;;;4.50;99.90;;;;;;4994215;28;20414;-83
2024/01/05 11:10:20;;;;;;;19.90;11.77;;;5.50;99.90;;;;;;4992000;28;20045;-81
2024/01/05 11:13:14;;;;;;;20.60;11.05;;;4.50;99.90;;;;;;4991542;28;20053;-82
2024/01/05 11:15:58;;;;;;;23.00;12.25;;;4.60;99.90;;;;;;5006078;28;20064;-82
2024/01/05 11:18:24;;;;;;;20.33;12.00;;;4.60;99.90;;;;;;4988352;28;20489;-82
2024/01/05 11:21:06;;;;;;;20.38;11.88;;;4.70;99.90;;;;;;5004159;28;20319;-83
2024/01/05 11:23:34;;;;;;;22.27;12.05;;;4.70;99.90;;;;;;5005826;28;20049;-82
2024/01/05 11:26:00;;;;;;;19.45;11.27;;;4.80;99.90;;;;;;5003605;28;20444;-81
2024/01/05 11:28:35;;;;;;;18.58;11.02;;;4.60;99.90;;;;;;5004329;28;20070;-82
2024/01/05 11:31:01;;;;;;;20.85;11.45;;;4.60;99.90;;;;;;5003554;28;20046;-83
2024/01/05 11:33:47;;;;;;;18.95;11.02;;;5.70;99.90;;;;;;5003741;28;20397;-83
2024/01/05 11:36:33;;;;;;;18.35;10.38;;;4.80;99.90;;;;;;5002617;28;20439;-83
2024/01/05 11:38:59;;;;;;;20.48;10.73;;;4.70;99.90;;;;;;5000296;28;20446;-83
2024/01/05 11:41:26;;;;;;;22.38;11.10;;;5.80;99.90;;;;;;5002246;28;20050;-83
2024/01/05 11:43:51;;;;;;;18.60;10.50;;;5.50;99.90;;;;;;5003397;28;20070;-85
2024/01/05 11:46:17;;;;;;;19.83;10.80;;;4.70;99.90;;;;;;5005049;28;20049;-83
2024/01/05 11:48:44;;;;;;;17.77;10.68;;;4.70;99.90;;;;;;5000035;28;20401;-83
2024/01/05 11:51:12;;;;;;;20.10;10.90;;;4.80;99.90;;;;;;4989124;28;20052;-83
2024/01/05 11:53:38;;;;;;;21.67;11.18;;;5.50;99.90;;;;;;4991618;28;20517;-83
2024/01/05 11:56:10;;;;;;;24.88;11.70;;;4.80;99.90;;;;;;4987720;28;20037;-84
2024/01/05 11:58:39;;;;;;;20.73;11.60;;;4.80;99.90;;;;;;4992720;28;20062;-83
2024/01/05 12:01:07;;;;;;;24.67;12.30;;;5.10;99.90;;;;;;5000037;28;20045;-84
2024/01/05 12:03:33;;;;;;;23.33;12.18;;;5.10;99.90;;;;;;4990183;28;20065;-82
2024/01/05 12:06:03;;;;;;;20.80;11.63;;;4.80;99.90;;;;;;5007970;28;20050;-84
2024/01/05 12:08:29;;;;;;;21.13;11.85;;;4.70;99.90;;;;;;5011027;28;20050;-84
2024/01/05 12:11:02;;;;;;;27.85;12.88;;;6.00;99.90;;;;;;5002904;28;20039;-84
2024/01/05 12:13:30;;;;;;;22.65;12.27;;;5.90;99.90;;;;;;4977014;28;20054;-83
2024/01/05 12:16:00;;;;;;;22.35;12.30;;;4.80;99.90;;;;;;5010161;28;20042;-82
2024/01/05 12:18:26;;;;;;;24.70;12.77;;;5.80;99.90;;;;;;5004849;28;20151;-82
2024/01/05 12:21:00;;;;;;;25.65;15.75;;;5.80;99.90;;;;;;5002256;28;20056;-82
2024/01/05 12:23:28;;;;;;;30.17;15.57;;;5.00;99.90;;;;;;4999594;28;20074;-82
2024/01/05 12:26:13;;;;;;;30.75;14.52;;;4.90;99.90;;;;;;4999560;28;20410;-82
2024/01/05 12:28:40;;;;;;;20.20;12.80;;;5.00;99.90;;;;;;4987175;28;20046;-84
2024/01/05 12:31:07;;;;;;;21.25;12.73;;;5.00;99.90;;;;;;5002050;28;20042;-82
2024/01/05 12:33:35;;;;;;;21.33;12.75;;;5.00;99.90;;;;;;4986012;28;20049;-83
2024/01/05 12:36:01;;;;;;;20.58;12.18;;;5.10;99.90;;;;;;4992523;28;20134;-82
2024/01/05 12:38:31;;;;;;;23.42;12.38;;;5.30;99.90;;;;;;4992721;28;20084;-82